Time;durP1;ratioP1;P1;durP2;ratioP2;P2;SDS_P1;SDS_P2;PMS_P1;PMS_P2;Temp;Humidity;BMP_temperature;BMP_pressure;BME280_temperature;BME280_humidity;BME280_pressure;Samples;Min_cycle;Max_cycle;Signal;HPM_P1;HPM_P2
2023/11/03 00:00:08;;;;;;;0.30;0.20;;;;;;;10.96;90.26;97290.31;5033464;28;20470;-51
2023/11/03 00:02:35;;;;;;;0.30;0.20;;;;;;;11.01;89.91;97289.97;5033439;28;21181;-51
2023/11/03 00:05:04;;;;;;;0.30;0.20;;;;;;;10.83;90.46;97293.09;5032963;28;20546;-50
2023/11/03 00:07:32;;;;;;;0.30;0.20;;;;;;;11.03;89.71;97288.88;5024007;28;20468;-51
2023/11/03 00:09:59;;;;;;;0.30;0.20;;;;;;;11.05;89.54;97289.59;5013514;28;20460;-52
2023/11/03 00:12:26;;;;;;;0.30;0.20;;;;;;;11.05;89.45;97292.25;5020057;28;20980;-51
2023/11/03 00:14:55;;;;;;;0.30;0.20;;;;;;;11.09;89.26;97283.06;5032845;28;21072;-51
2023/11/03 00:17:21;;;;;;;0.30;0.20;;;;;;;11.25;89.02;97286.22;5033140;28;20458;-51
2023/11/03 00:19:48;;;;;;;0.30;0.20;;;;;;;11.15;89.61;97271.94;5018336;28;20453;-52
2023/11/03 00:22:14;;;;;;;0.30;0.20;;;;;;;11.06;89.38;97279.81;5020086;28;20506;-50
2023/11/03 00:24:42;;;;;;;0.93;0.93;;;;;;;11.17;89.64;97272.66;5032668;28;21024;-50
2023/11/03 00:27:08;;;;;;;0.30;0.20;;;;;;;11.17;89.72;97266.50;5033290;28;20440;-50
2023/11/03 00:29:35;;;;;;;0.30;0.20;;;;;;;11.20;89.18;97260.94;5032997;28;20542;-50
2023/11/03 00:32:03;;;;;;;0.30;0.20;;;;;;;11.24;89.29;97262.41;5032876;28;20454;-51
2023/11/03 00:34:29;;;;;;;0.30;0.20;;;;;;;11.32;89.06;97249.31;5032612;28;20529;-50
2023/11/03 00:36:56;;;;;;;0.30;0.20;;;;;;;11.33;88.69;97240.38;5032701;28;20444;-51
2023/11/03 00:39:23;;;;;;;0.30;0.20;;;;;;;11.17;89.13;97242.59;5032874;28;20542;-51
2023/11/03 00:41:51;;;;;;;0.30;0.20;;;;;;;11.38;88.15;97227.56;5014025;28;20452;-51
2023/11/03 00:44:18;;;;;;;0.30;0.20;;;;;;;11.36;88.40;97232.16;5027738;28;20526;-51
2023/11/03 00:46:46;;;;;;;1.87;1.80;;;;;;;11.23;88.71;97232.28;5032552;28;20578;-50
2023/11/03 00:49:13;;;;;;;0.30;0.20;;;;;;;11.31;88.41;97218.38;5032498;28;20452;-51
2023/11/03 00:51:40;;;;;;;0.30;0.20;;;;;;;11.30;88.56;97219.34;5033057;28;20501;-51
2023/11/03 00:54:07;;;;;;;0.30;0.20;;;;;;;11.23;88.89;97223.47;5032602;28;20467;-51
2023/11/03 00:56:36;;;;;;;0.30;0.20;;;;;;;11.42;88.47;97213.06;5032876;28;20479;-51
2023/11/03 00:59:03;;;;;;;0.30;0.20;;;;;;;11.27;88.65;97211.63;5032461;28;20476;-51
2023/11/03 01:01:29;;;;;;;0.30;0.20;;;;;;;11.19;89.18;97212.25;5032471;28;20538;-50
2023/11/03 01:03:56;;;;;;;0.30;0.20;;;;;;;11.22;88.16;97217.31;5032075;28;20466;-51
2023/11/03 01:06:22;;;;;;;0.30;0.20;;;;;;;11.27;88.32;97224.94;5032356;28;20487;-51
2023/11/03 01:08:51;;;;;;;0.30;0.20;;;;;;;11.35;88.09;97226.94;5016349;28;20452;-51
2023/11/03 01:11:23;;;;;;;0.30;0.20;;;;;;;11.33;87.96;97224.41;5022426;28;20518;-51
2023/11/03 01:13:51;;;;;;;0.30;0.20;;;;;;;11.23;88.45;97220.81;5032305;28;20522;-51
2023/11/03 01:16:18;;;;;;;0.30;0.20;;;;;;;11.28;87.92;97223.97;5032182;28;20452;-51
2023/11/03 01:18:45;;;;;;;0.30;0.20;;;;;;;11.39;88.29;97220.44;5032455;28;20476;-51
2023/11/03 01:21:18;;;;;;;0.30;0.20;;;;;;;11.37;87.61;97225.00;5032351;28;20451;-51
2023/11/03 01:23:49;;;;;;;0.30;0.20;;;;;;;11.37;88.06;97220.53;5031972;28;20487;-51
2023/11/03 01:26:16;;;;;;;0.30;0.20;;;;;;;11.49;87.79;97224.00;5032054;28;20593;-51
2023/11/03 01:28:43;;;;;;;0.30;0.20;;;;;;;11.36;87.29;97221.50;5032206;28;20455;-51
2023/11/03 01:31:11;;;;;;;0.30;0.20;;;;;;;11.38;87.73;97216.09;5032270;28;20859;-51
2023/11/03 01:33:41;;;;;;;0.30;0.20;;;;;;;11.23;86.80;97215.50;5036203;28;20470;-51
2023/11/03 01:36:08;;;;;;;0.30;0.20;;;;;;;11.26;87.02;97205.47;5036889;28;20857;-51
2023/11/03 01:38:35;;;;;;;0.30;0.20;;;;;;;11.36;86.73;97216.19;5036278;28;20815;-51
2023/11/03 01:41:02;;;;;;;0.30;0.20;;;;;;;11.57;86.15;97213.59;5035744;28;20454;-50
2023/11/03 01:43:30;;;;;;;0.30;0.20;;;;;;;11.48;85.59;97215.19;5035722;28;20474;-50
2023/11/03 01:45:58;;;;;;;0.30;0.20;;;;;;;11.50;86.31;97217.72;5035739;28;20499;-51
2023/11/03 01:48:29;;;;;;;0.30;0.20;;;;;;;11.43;86.95;97217.41;5035721;28;20954;-51
2023/11/03 01:50:58;;;;;;;0.30;0.20;;;;;;;11.57;86.53;97222.44;5035742;28;20484;-51
2023/11/03 01:53:27;;;;;;;0.30;0.20;;;;;;;11.59;86.34;97219.63;5035884;28;20547;-51
2023/11/03 01:55:55;;;;;;;0.30;0.20;;;;;;;11.45;87.04;97214.59;5035532;28;20449;-51
2023/11/03 01:58:23;;;;;;;0.30;0.20;;;;;;;11.67;85.97;97222.53;5035304;28;20543;-50
2023/11/03 02:00:50;;;;;;;0.30;0.20;;;;;;;11.64;85.09;97211.28;5035572;28;20447;-51
2023/11/03 02:03:17;;;;;;;0.30;0.20;;;;;;;11.48;85.69;97209.88;5035670;28;20475;-51
2023/11/03 02:05:43;;;;;;;0.30;0.20;;;;;;;11.39;84.69;97210.66;5035013;28;20495;-50
2023/11/03 02:08:10;;;;;;;0.30;0.20;;;;;;;11.34;86.31;97196.00;5024504;28;20471;-51
2023/11/03 02:10:42;;;;;;;0.30;0.20;;;;;;;11.40;85.83;97201.69;5019816;28;20896;-50
2023/11/03 02:13:10;;;;;;;0.30;0.20;;;;;;;11.44;84.34;97207.59;5034079;28;20519;-51
2023/11/03 02:15:39;;;;;;;0.30;0.20;;;;;;;11.54;84.56;97214.72;5035373;28;20491;-50
2023/11/03 02:18:10;;;;;;;0.30;0.20;;;;;;;11.56;84.77;97219.91;5035402;28;20452;-50
2023/11/03 02:20:37;;;;;;;0.30;0.20;;;;;;;11.61;84.47;97223.00;5035532;28;20475;-51
2023/11/03 02:23:06;;;;;;;0.30;0.20;;;;;;;11.67;84.02;97229.66;5034963;28;20550;-51
2023/11/03 02:25:32;;;;;;;0.30;0.20;;;;;;;11.54;84.99;97230.66;5035178;28;21154;-51
2023/11/03 02:27:59;;;;;;;0.30;0.20;;;;;;;11.44;84.99;97237.69;5035228;28;20455;-51
2023/11/03 02:30:26;;;;;;;2.63;2.53;;;;;;;11.47;84.52;97234.78;5035195;28;20452;-52
2023/11/03 02:32:53;;;;;;;0.30;0.20;;;;;;;11.50;85.38;97233.69;5034874;28;20451;-52
2023/11/03 02:35:19;;;;;;;0.30;0.20;;;;;;;11.66;84.13;97238.63;5034980;28;20468;-52
2023/11/03 02:37:46;;;;;;;0.30;0.20;;;;;;;11.66;85.24;97238.63;5034750;28;21288;-52
2023/11/03 02:40:14;;;;;;;0.30;0.20;;;;;;;11.56;84.85;97243.84;5034994;28;20456;-52
2023/11/03 02:42:40;;;;;;;0.30;0.20;;;;;;;11.51;85.33;97243.34;5034122;28;20455;-52
2023/11/03 02:45:08;;;;;;;0.30;0.20;;;;;;;11.47;85.55;97242.75;5034942;28;20476;-51
2023/11/03 02:47:35;;;;;;;0.30;0.20;;;;;;;11.67;84.91;97251.78;5034794;28;20552;-51
2023/11/03 02:50:02;;;;;;;0.30;0.20;;;;;;;11.54;84.96;97246.63;5034732;28;20455;-51
2023/11/03 02:52:29;;;;;;;0.30;0.20;;;;;;;11.65;84.64;97252.88;5034750;28;20538;-52
2023/11/03 02:54:56;;;;;;;0.30;0.20;;;;;;;11.76;84.81;97245.69;5034931;28;20475;-52
2023/11/03 02:57:22;;;;;;;0.30;0.20;;;;;;;11.59;84.67;97238.25;5034708;28;20451;-52
2023/11/03 02:59:49;;;;;;;0.30;0.20;;;;;;;11.51;84.47;97244.22;5034795;28;20451;-52
2023/11/03 03:02:15;;;;;;;0.30;0.20;;;;;;;11.56;84.49;97239.38;5034480;28;20532;-50
2023/11/03 03:04:42;;;;;;;0.30;0.20;;;;;;;11.50;84.62;97244.31;5031018;28;20519;-52
2023/11/03 03:07:08;;;;;;;0.30;0.20;;;;;;;11.38;84.59;97242.69;5029089;28;20506;-52
2023/11/03 03:09:34;;;;;;;0.30;0.20;;;;;;;11.52;85.02;97245.91;5014837;28;20459;-52
2023/11/03 03:12:01;;;;;;;0.30;0.20;;;;;;;11.52;84.90;97243.25;5031256;28;20469;-52
2023/11/03 03:14:27;;;;;;;0.30;0.20;;;;;;;11.44;85.14;97244.84;5034266;28;20548;-51
2023/11/03 03:16:54;;;;;;;0.30;0.20;;;;;;;11.53;84.12;97249.41;5034122;28;20450;-52
2023/11/03 03:19:20;;;;;;;0.30;0.20;;;;;;;11.49;84.72;97247.94;5034086;28;20418;-52
2023/11/03 03:21:47;;;;;;;0.30;0.20;;;;;;;11.58;84.66;97248.06;5034098;28;20521;-52
2023/11/03 03:24:13;;;;;;;0.30;0.20;;;;;;;11.51;84.23;97252.22;5034058;28;20475;-51
2023/11/03 03:26:40;;;;;;;0.30;0.20;;;;;;;11.76;84.17;97263.47;5033990;28;20491;-52
2023/11/03 03:29:07;;;;;;;0.30;0.20;;;;;;;11.62;83.87;97253.13;5034012;28;20447;-52
2023/11/03 03:31:33;;;;;;;0.30;0.20;;;;;;;11.56;84.09;97260.66;5033701;28;20454;-52
2023/11/03 03:33:59;;;;;;;0.30;0.20;;;;;;;11.72;84.08;97268.22;5033786;28;20551;-52
2023/11/03 03:36:26;;;;;;;0.30;0.20;;;;;;;11.65;83.52;97263.50;5033852;28;20444;-52
2023/11/03 03:38:53;;;;;;;0.30;0.20;;;;;;;11.55;84.57;97268.75;5033972;28;20544;-51
2023/11/03 03:41:19;;;;;;;0.30;0.20;;;;;;;11.61;84.72;97265.59;5033788;28;20451;-52
2023/11/03 03:43:46;;;;;;;0.30;0.20;;;;;;;11.46;84.37;97265.00;5033725;28;20529;-52
2023/11/03 03:46:12;;;;;;;0.30;0.20;;;;;;;11.58;84.09;97258.69;5033522;28;20923;-52
2023/11/03 03:48:39;;;;;;;0.30;0.20;;;;;;;11.55;83.89;97264.28;5033480;28;20455;-52
2023/11/03 03:51:05;;;;;;;0.30;0.20;;;;;;;11.55;84.65;97261.63;5033797;28;20452;-52
2023/11/03 03:53:32;;;;;;;0.30;0.20;;;;;;;11.62;84.35;97266.44;5033635;28;20571;-52
2023/11/03 03:55:58;;;;;;;0.30;0.20;;;;;;;11.49;84.04;97263.91;5033535;28;20471;-52
2023/11/03 03:58:25;;;;;;;0.30;0.20;;;;;;;11.51;84.33;97272.59;5033503;28;20497;-52
2023/11/03 04:00:52;;;;;;;0.30;0.20;;;;;;;11.63;83.42;97276.94;5033270;28;20448;-52
2023/11/03 04:03:19;;;;;;;0.30;0.20;;;;;;;11.59;83.50;97278.16;5033155;28;20451;-52
2023/11/03 04:05:46;;;;;;;0.30;0.20;;;;;;;11.58;83.79;97285.31;5033102;28;20454;-52
2023/11/03 04:08:12;;;;;;;0.30;0.20;;;;;;;11.60;82.85;97281.66;5021309;28;20453;-52
2023/11/03 04:10:39;;;;;;;0.30;0.20;;;;;;;11.58;82.78;97293.28;5018971;28;20452;-52
2023/11/03 04:13:05;;;;;;;0.30;0.20;;;;;;;11.62;82.36;97295.69;5033718;28;20835;-48
2023/11/03 04:15:32;;;;;;;0.30;0.20;;;;;;;11.45;83.29;97299.72;5032966;28;20495;-49
2023/11/03 04:17:58;;;;;;;0.30;0.20;;;;;;;11.42;82.40;97299.97;5033209;28;20513;-49
2023/11/03 04:20:25;;;;;;;0.30;0.20;;;;;;;11.51;82.77;97289.44;5033191;28;20448;-49
2023/11/03 04:22:51;;;;;;;0.30;0.20;;;;;;;11.81;82.12;97294.13;5031906;28;20550;-50
2023/11/03 04:25:18;;;;;;;0.30;0.20;;;;;;;11.60;82.55;97301.13;5032833;28;20533;-49
2023/11/03 04:27:44;;;;;;;0.30;0.20;;;;;;;11.55;82.85;97300.69;5032860;28;20560;-50
2023/11/03 04:30:11;;;;;;;0.30;0.20;;;;;;;11.43;83.68;97299.84;5032751;28;20458;-49
2023/11/03 04:32:38;;;;;;;0.30;0.20;;;;;;;11.45;83.60;97303.22;5033009;28;20447;-51
2023/11/03 04:35:07;;;;;;;0.30;0.20;;;;;;;11.38;82.85;97302.03;5019736;28;20472;-49
2023/11/03 04:37:34;;;;;;;0.30;0.20;;;;;;;11.37;82.93;97302.97;5032826;28;20505;-49
2023/11/03 04:40:02;;;;;;;0.30;0.20;;;;;;;11.41;82.95;97300.94;5032821;28;20482;-49
2023/11/03 04:42:29;;;;;;;0.30;0.20;;;;;;;11.33;83.63;97293.56;5032683;28;20448;-49
2023/11/03 04:44:56;;;;;;;0.30;0.20;;;;;;;11.32;82.67;97297.19;5032640;28;20563;-49
2023/11/03 04:47:22;;;;;;;0.30;0.20;;;;;;;11.39;82.70;97289.59;5032741;28;20582;-49
2023/11/03 04:49:49;;;;;;;0.30;0.20;;;;;;;11.40;82.39;97292.13;5032560;28;20451;-49
2023/11/03 04:52:16;;;;;;;0.30;0.20;;;;;;;11.38;83.05;97294.06;5032520;28;20879;-49
2023/11/03 04:54:42;;;;;;;0.30;0.20;;;;;;;11.35;83.57;97288.97;5032459;28;20468;-49
2023/11/03 04:57:09;;;;;;;0.30;0.20;;;;;;;11.29;83.40;97297.44;5032351;28;20502;-49
2023/11/03 04:59:36;;;;;;;0.30;0.20;;;;;;;11.33;83.67;97292.72;5032525;28;20451;-49
2023/11/03 05:02:05;;;;;;;0.30;0.20;;;;;;;11.37;83.72;97286.19;5032591;28;20447;-49
2023/11/03 05:04:31;;;;;;;0.30;0.20;;;;;;;11.54;83.32;97289.19;5032379;28;20483;-49
2023/11/03 05:06:58;;;;;;;0.30;0.20;;;;;;;11.49;84.33;97295.84;5029683;28;20493;-49
2023/11/03 05:09:24;;;;;;;0.30;0.20;;;;;;;11.48;83.75;97297.66;5012794;28;20453;-49
2023/11/03 05:11:51;;;;;;;0.30;0.20;;;;;;;11.46;84.72;97288.94;5027889;28;20924;-48
2023/11/03 05:14:17;;;;;;;0.30;0.20;;;;;;;11.52;83.98;97279.66;5033207;28;20467;-49
2023/11/03 05:16:44;;;;;;;0.30;0.20;;;;;;;11.39;84.56;97277.13;5032048;28;20444;-49
2023/11/03 05:19:10;;;;;;;0.30;0.20;;;;;;;11.38;84.58;97282.56;5032314;28;20452;-49
2023/11/03 05:21:37;;;;;;;0.30;0.20;;;;;;;11.35;84.81;97283.63;5032199;28;20456;-49
2023/11/03 05:24:03;;;;;;;0.30;0.20;;;;;;;11.37;84.71;97280.84;5032167;28;20550;-49
2023/11/03 05:26:30;;;;;;;0.30;0.20;;;;;;;11.43;84.97;97275.06;5032066;28;20490;-49
2023/11/03 05:28:57;;;;;;;0.30;0.20;;;;;;;11.37;85.50;97276.38;5032091;28;20454;-49
2023/11/03 05:31:23;;;;;;;0.30;0.20;;;;;;;11.27;85.17;97281.63;5032052;28;20456;-49
2023/11/03 05:33:50;;;;;;;0.30;0.20;;;;;;;11.38;85.44;97280.75;5032214;28;20447;-49
2023/11/03 05:36:16;;;;;;;0.30;0.20;;;;;;;11.31;85.16;97276.88;5032203;28;20451;-49
2023/11/03 05:38:43;;;;;;;0.30;0.20;;;;;;;11.14;84.83;97280.06;5032283;28;20452;-49
2023/11/03 05:41:13;;;;;;;0.30;0.20;;;;;;;11.14;85.16;97282.72;5031969;28;20537;-49
2023/11/03 05:43:39;;;;;;;0.30;0.20;;;;;;;11.17;85.57;97290.44;5032176;28;20448;-49
2023/11/03 05:46:06;;;;;;;0.30;0.20;;;;;;;11.26;84.86;97285.25;5031929;28;21000;-50
2023/11/03 05:48:32;;;;;;;0.30;0.20;;;;;;;11.29;84.70;97289.47;5031877;28;20495;-49
2023/11/03 05:50:59;;;;;;;0.30;0.20;;;;;;;11.26;84.73;97293.22;5032091;28;20426;-48
2023/11/03 05:53:25;;;;;;;0.30;0.20;;;;;;;11.20;85.85;97296.34;5031682;28;20470;-49
2023/11/03 05:55:52;;;;;;;0.30;0.20;;;;;;;11.19;85.08;97305.28;5031894;28;20528;-49
2023/11/03 05:58:18;;;;;;;0.30;0.20;;;;;;;11.23;85.26;97306.72;5031749;28;20451;-49
2023/11/03 06:00:45;;;;;;;0.30;0.20;;;;;;;11.13;85.63;97311.09;5031642;28;20522;-49
2023/11/03 06:03:12;;;;;;;0.30;0.20;;;;;;;11.28;84.81;97317.03;5031918;28;20443;-49
2023/11/03 06:05:39;;;;;;;0.30;0.20;;;;;;;11.23;84.61;97317.38;5031838;28;20480;-48
2023/11/03 06:08:05;;;;;;;0.30;0.20;;;;;;;11.33;84.81;97317.50;5021594;28;20519;-50
2023/11/03 06:10:31;;;;;;;0.30;0.20;;;;;;;11.25;84.64;97327.91;5015631;28;20514;-50
2023/11/03 06:12:58;;;;;;;0.30;0.20;;;;;;;11.27;84.54;97334.78;5031876;28;20451;-49
2023/11/03 06:15:24;;;;;;;0.30;0.20;;;;;;;11.26;84.96;97329.59;5031517;28;20459;-49
2023/11/03 06:17:51;;;;;;;0.30;0.20;;;;;;;11.33;85.24;97338.75;5032645;28;20534;-49
2023/11/03 06:20:17;;;;;;;0.30;0.20;;;;;;;11.20;85.37;97349.53;5035285;28;21071;-49
2023/11/03 06:22:44;;;;;;;0.30;0.20;;;;;;;11.14;86.55;97373.09;5035007;28;20469;-49
2023/11/03 06:25:10;;;;;;;0.30;0.20;;;;;;;11.11;87.09;97376.00;5035186;28;20467;-49
2023/11/03 06:27:37;;;;;;;0.30;0.20;;;;;;;11.11;85.95;97392.78;5034035;28;20500;-49
2023/11/03 06:30:04;;;;;;;0.30;0.20;;;;;;;11.15;86.90;97398.72;5035031;28;20529;-49
2023/11/03 06:32:30;;;;;;;0.30;0.20;;;;;;;11.31;86.56;97406.34;5035127;28;20447;-49
2023/11/03 06:34:57;;;;;;;0.30;0.20;;;;;;;11.25;87.44;97413.00;5034876;28;20471;-49
2023/11/03 06:37:23;;;;;;;0.30;0.20;;;;;;;11.13;87.92;97420.09;5034914;28;20447;-50
2023/11/03 06:39:53;;;;;;;0.30;0.20;;;;;;;11.22;88.88;97421.19;5035222;28;20964;-49
2023/11/03 06:42:20;;;;;;;0.30;0.20;;;;;;;11.25;89.10;97426.28;5034732;28;20831;-49
2023/11/03 06:44:46;;;;;;;0.30;0.20;;;;;;;11.14;88.66;97431.56;5034619;28;20562;-49
2023/11/03 06:47:13;;;;;;;0.30;0.20;;;;;;;10.94;90.08;97441.91;5034600;28;20491;-49
2023/11/03 06:49:46;;;;;;;0.30;0.20;;;;;;;11.05;89.85;97445.56;5034559;28;20454;-51
2023/11/03 06:52:13;;;;;;;0.30;0.20;;;;;;;11.06;89.57;97455.22;5034883;28;20451;-49
2023/11/03 06:54:43;;;;;;;0.30;0.20;;;;;;;11.02;90.37;97445.81;5034856;28;20467;-48
2023/11/03 06:57:10;;;;;;;0.30;0.20;;;;;;;10.88;91.23;97450.34;5034458;28;20486;-49
2023/11/03 06:59:38;;;;;;;0.30;0.20;;;;;;;10.80;92.51;97451.88;5034189;28;20447;-49
2023/11/03 07:02:05;;;;;;;0.30;0.20;;;;;;;11.01;92.07;97446.78;5034196;28;20444;-49
2023/11/03 07:04:33;;;;;;;0.30;0.20;;;;;;;10.96;92.19;97461.25;5034655;28;20495;-49
2023/11/03 07:07:01;;;;;;;0.30;0.20;;;;;;;10.92;92.65;97466.91;5031676;28;20487;-49
2023/11/03 07:09:30;;;;;;;0.30;0.20;;;;;;;10.98;92.59;97467.31;5014518;28;20459;-49
2023/11/03 07:11:57;;;;;;;0.30;0.20;;;;;;;10.97;92.51;97470.09;5030844;28;20475;-49
2023/11/03 07:14:25;;;;;;;0.30;0.20;;;;;;;10.95;93.02;97471.97;5034071;28;20471;-49
2023/11/03 07:16:52;;;;;;;0.30;0.20;;;;;;;10.93;93.47;97469.44;5030743;28;20532;-49
2023/11/03 07:19:20;;;;;;;0.30;0.20;;;;;;;10.91;93.85;97473.19;5024807;28;20451;-49
2023/11/03 07:21:53;;;;;;;0.30;0.20;;;;;;;10.97;93.08;97473.59;5033804;28;20542;-50
2023/11/03 07:24:21;;;;;;;0.30;0.20;;;;;;;10.98;93.22;97477.94;5034207;28;20471;-49
2023/11/03 07:26:50;;;;;;;0.30;0.20;;;;;;;10.97;93.95;97476.25;5033943;28;20452;-50
2023/11/03 07:29:17;;;;;;;0.30;0.20;;;;;;;10.80;93.42;97473.13;5033685;28;20535;-50
2023/11/03 07:31:45;;;;;;;0.30;0.20;;;;;;;10.87;94.17;97482.38;5033808;28;20452;-49
2023/11/03 07:34:13;;;;;;;0.30;0.20;;;;;;;10.95;94.36;97491.44;5033902;28;20554;-49
2023/11/03 07:36:40;;;;;;;0.30;0.20;;;;;;;11.06;93.23;97495.09;5034005;28;20486;-50
2023/11/03 07:39:06;;;;;;;0.30;0.20;;;;;;;11.00;93.80;97495.56;5033867;28;20452;-49
2023/11/03 07:41:36;;;;;;;0.30;0.20;;;;;;;10.90;93.48;97490.09;5033691;28;20448;-50
2023/11/03 07:44:03;;;;;;;0.30;0.20;;;;;;;10.95;93.30;97498.56;5033546;28;20992;-50
2023/11/03 07:46:32;;;;;;;0.30;0.20;;;;;;;11.08;93.07;97503.81;5033749;28;20530;-49
2023/11/03 07:49:00;;;;;;;0.30;0.20;;;;;;;10.98;93.37;97501.00;5033757;28;20494;-49
2023/11/03 07:51:27;;;;;;;0.30;0.20;;;;;;;10.97;93.82;97508.13;5033391;28;20860;-49
2023/11/03 07:53:53;;;;;;;0.30;0.20;;;;;;;11.00;93.74;97503.56;5033431;28;20458;-50
2023/11/03 07:56:23;;;;;;;0.30;0.20;;;;;;;11.03;93.02;97506.81;5033251;28;20905;-49
2023/11/03 07:59:02;;;;;;;0.30;0.20;;;;;;;11.20;92.64;97501.06;5033511;28;20522;-49
2023/11/03 08:01:28;;;;;;;0.30;0.20;;;;;;;11.17;92.52;97508.44;5033467;28;20471;-50
2023/11/03 08:03:55;;;;;;;0.30;0.20;;;;;;;11.06;92.64;97511.06;5033192;28;20464;-50
2023/11/03 08:06:22;;;;;;;0.30;0.20;;;;;;;10.90;93.71;97519.31;5033208;28;20594;-49
2023/11/03 08:08:48;;;;;;;0.30;0.20;;;;;;;10.77;94.89;97526.50;5017626;28;20492;-49
2023/11/03 08:11:15;;;;;;;0.30;0.20;;;;;;;10.82;94.63;97519.88;5022236;28;20452;-50
2023/11/03 08:13:42;;;;;;;0.30;0.20;;;;;;;10.94;94.50;97528.75;5033166;28;20502;-49
2023/11/03 08:16:09;;;;;;;0.30;0.20;;;;;;;10.92;94.29;97526.22;5032873;28;20526;-49
2023/11/03 08:18:35;;;;;;;0.30;0.20;;;;;;;10.90;94.47;97525.50;5032928;28;20507;-49
2023/11/03 08:21:02;;;;;;;0.30;0.20;;;;;;;10.92;94.24;97526.22;5033185;28;20821;-50
2023/11/03 08:23:31;;;;;;;0.30;0.20;;;;;;;11.21;93.99;97520.53;5032592;28;20905;-50
2023/11/03 08:25:57;;;;;;;0.30;0.20;;;;;;;11.10;92.97;97524.03;5033372;28;20503;-49
2023/11/03 08:28:23;;;;;;;0.30;0.20;;;;;;;11.27;93.22;97534.22;5032971;28;20491;-49
2023/11/03 08:30:51;;;;;;;0.30;0.20;;;;;;;11.37;92.44;97531.69;5032957;28;20498;-49
2023/11/03 08:33:18;;;;;;;0.30;0.20;;;;;;;11.43;91.47;97535.72;5032555;28;20452;-49
2023/11/03 08:35:45;;;;;;;2.93;2.73;;;;;;;11.34;92.10;97537.25;5032560;28;20476;-50
2023/11/03 08:38:13;;;;;;;0.30;0.20;;;;;;;11.41;91.54;97549.13;5032560;28;20454;-50
2023/11/03 08:40:40;;;;;;;0.30;0.20;;;;;;;11.67;91.01;97544.47;5031900;28;20945;-49
2023/11/03 08:43:06;;;;;;;0.30;0.20;;;;;;;11.52;91.03;97549.16;5032368;28;20968;-50
2023/11/03 08:45:33;;;;;;;0.30;0.20;;;;;;;11.58;91.00;97555.81;5032436;28;21068;-49
2023/11/03 08:48:01;;;;;;;0.30;0.20;;;;;;;11.81;89.83;97559.41;5032289;28;20530;-50
2023/11/03 08:50:28;;;;;;;0.30;0.20;;;;;;;11.92;89.40;97563.88;5032333;28;20443;-50
2023/11/03 08:52:54;;;;;;;0.30;0.20;;;;;;;11.86;90.15;97570.53;5032528;28;20513;-50
2023/11/03 08:55:22;;;;;;;0.30;0.20;;;;;;;11.89;89.62;97564.13;5032416;28;20514;-50
2023/11/03 08:57:49;;;;;;;0.30;0.20;;;;;;;11.88;89.27;97565.09;5032552;28;20444;-50
2023/11/03 09:00:16;;;;;;;0.30;0.20;;;;;;;11.87;88.34;97558.91;5032643;28;20447;-50
2023/11/03 09:02:48;;;;;;;0.30;0.20;;;;;;;11.98;89.12;97564.25;5032232;28;20957;-49
2023/11/03 09:05:16;;;;;;;0.30;0.20;;;;;;;12.18;88.30;97567.16;5031781;28;20502;-49
2023/11/03 09:07:45;;;;;;;0.30;0.20;;;;;;;12.08;87.69;97561.72;5024898;28;20572;-49
2023/11/03 09:10:13;;;;;;;0.30;0.20;;;;;;;12.19;87.32;97569.69;5014012;28;20456;-50
2023/11/03 09:12:41;;;;;;;0.30;0.20;;;;;;;12.48;86.29;97574.56;5032290;28;20535;-49
2023/11/03 09:15:09;;;;;;;0.30;0.20;;;;;;;12.50;86.35;97564.63;5031992;28;20467;-49
2023/11/03 09:17:36;;;;;;;0.30;0.20;;;;;;;12.38;86.25;97553.97;5032014;28;20440;-50
2023/11/03 09:20:07;;;;;;;0.30;0.20;;;;;;;12.40;86.40;97565.34;5032491;28;20471;-50
2023/11/03 09:22:36;;;;;;;0.30;0.20;;;;;;;12.16;85.75;97562.81;5032025;28;20468;-49
2023/11/03 09:25:09;;;;;;;0.30;0.20;;;;;;;12.31;85.54;97565.22;5031923;28;20467;-49
2023/11/03 09:27:38;;;;;;;0.30;0.20;;;;;;;12.26;85.86;97557.59;5032176;28;20843;-50
2023/11/03 09:30:12;;;;;;;0.30;0.20;;;;;;;12.42;84.92;97560.75;5031826;28;20447;-49
2023/11/03 09:32:43;;;;;;;0.30;0.20;;;;;;;12.41;84.15;97563.53;5031901;28;20955;-49
2023/11/03 09:35:10;;;;;;;0.30;0.20;;;;;;;12.51;83.89;97566.31;5018935;28;20838;-49
2023/11/03 09:37:38;;;;;;;0.33;0.27;;;;;;;12.37;83.47;97556.75;5031990;28;20820;-50
2023/11/03 09:40:12;;;;;;;0.30;0.20;;;;;;;12.31;84.24;97571.41;5031857;28;20827;-49
2023/11/03 09:42:40;;;;;;;0.30;0.20;;;;;;;12.32;84.83;97561.59;5031966;28;20451;-49
2023/11/03 09:45:15;;;;;;;0.30;0.20;;;;;;;12.43;83.87;97566.91;5031867;28;20529;-49
2023/11/03 09:47:43;;;;;;;0.30;0.20;;;;;;;12.58;83.59;97564.84;5031709;28;20484;-50
2023/11/03 09:50:11;;;;;;;0.30;0.20;;;;;;;12.52;82.86;97566.19;5031670;28;20444;-50
2023/11/03 09:52:47;;;;;;;0.30;0.20;;;;;;;12.74;81.86;97566.13;5033870;28;20452;-49
2023/11/03 09:55:21;;;;;;;0.30;0.20;;;;;;;12.88;81.80;97572.16;5035540;28;20529;-49
2023/11/03 09:57:51;;;;;;;0.30;0.20;;;;;;;12.90;80.89;97579.09;5035687;28;21005;-50
2023/11/03 10:00:22;;;;;;;0.30;0.20;;;;;;;12.99;81.15;97578.31;5035055;28;20443;-50
2023/11/03 10:02:49;;;;;;;0.30;0.20;;;;;;;12.97;82.05;97569.59;5035463;28;20472;-49
2023/11/03 10:05:17;;;;;;;0.30;0.20;;;;;;;13.10;81.17;97572.09;5034952;28;20487;-49
2023/11/03 10:08:01;;;;;;;0.30;0.20;;;;;;;13.02;80.94;97570.09;5027303;28;20491;-49
2023/11/03 10:10:29;;;;;;;0.30;0.20;;;;;;;12.83;81.35;97571.69;5019045;28;20951;-49
2023/11/03 10:12:59;;;;;;;0.30;0.20;;;;;;;12.77;81.68;97574.88;5035365;28;20451;-52
2023/11/03 10:15:26;;;;;;;0.30;0.20;;;;;;;12.74;81.89;97573.28;5034455;28;20491;-49
2023/11/03 10:17:53;;;;;;;0.30;0.20;;;;;;;12.72;82.54;97576.06;5035371;28;20554;-49
2023/11/03 10:20:20;;;;;;;0.30;0.20;;;;;;;12.93;81.92;97577.97;5034892;28;20928;-49
2023/11/03 10:22:47;;;;;;;0.40;0.20;;;;;;;12.76;82.34;97576.69;5035301;28;20839;-49
2023/11/03 10:25:15;;;;;;;0.30;0.20;;;;;;;12.64;82.93;97567.88;5035196;28;20522;-49
2023/11/03 10:27:45;;;;;;;0.30;0.20;;;;;;;12.57;82.54;97579.13;5035287;28;20960;-50
2023/11/03 10:30:15;;;;;;;0.30;0.20;;;;;;;12.55;82.81;97573.94;5034977;28;20936;-48
2023/11/03 10:32:43;;;;;;;0.30;0.20;;;;;;;12.75;81.94;97567.00;5034926;28;20551;-48
2023/11/03 10:35:12;;;;;;;0.30;0.20;;;;;;;12.76;81.24;97574.03;5034861;28;21027;-48
2023/11/03 10:37:40;;;;;;;0.30;0.20;;;;;;;12.67;81.52;97572.09;5035166;28;20482;-49
2023/11/03 10:40:12;;;;;;;0.30;0.20;;;;;;;12.60;81.61;97570.88;5035107;28;20454;-50
2023/11/03 10:42:41;;;;;;;0.30;0.20;;;;;;;12.84;81.25;97574.22;5034879;28;20513;-50
2023/11/03 10:45:08;;;;;;;0.30;0.20;;;;;;;13.13;81.33;97566.50;5034883;28;20463;-51
2023/11/03 10:47:52;;;;;;;0.30;0.20;;;;;;;13.00;81.78;97568.50;5034993;28;20483;-51
2023/11/03 10:50:20;;;;;;;0.30;0.20;;;;;;;12.95;80.18;97560.03;5034890;28;20479;-51
2023/11/03 10:53:19;;;;;;;0.30;0.20;;;;;;;12.89;80.97;97565.88;5034543;28;20480;-51
2023/11/03 10:55:56;;;;;;;0.30;0.20;;;;;;;12.94;79.81;97563.66;5034351;28;20472;-51
2023/11/03 10:58:23;;;;;;;0.30;0.20;;;;;;;12.94;80.11;97563.66;5034762;28;20447;-51
2023/11/03 11:00:58;;;;;;;0.30;0.20;;;;;;;13.11;80.16;97564.94;5034509;28;20451;-51
2023/11/03 11:03:30;;;;;;;0.30;0.20;;;;;;;13.18;80.42;97564.34;5033858;28;20455;-51
2023/11/03 11:06:17;;;;;;;0.30;0.20;;;;;;;13.49;79.70;97567.13;5034127;28;20479;-51
2023/11/03 11:08:53;;;;;;;0.30;0.20;;;;;;;13.14;79.99;97570.88;5014549;28;20523;-51
2023/11/03 11:11:20;;;;;;;0.30;0.20;;;;;;;13.29;80.46;97575.00;5024768;28;20451;-51
2023/11/03 11:13:46;;;;;;;0.30;0.20;;;;;;;13.31;79.75;97578.38;5034599;28;20447;-50
2023/11/03 11:16:12;;;;;;;0.30;0.20;;;;;;;13.37;79.96;97576.16;5034046;28;20951;-51
2023/11/03 11:18:53;;;;;;;0.30;0.20;;;;;;;13.32;79.11;97582.72;5033878;28;20946;-50
2023/11/03 11:21:29;;;;;;;0.30;0.20;;;;;;;13.32;79.49;97580.06;5033942;28;20451;-51
2023/11/03 11:23:56;;;;;;;0.30;0.20;;;;;;;13.34;79.24;97588.78;5022105;28;20483;-51
2023/11/03 11:26:24;;;;;;;0.30;0.20;;;;;;;13.20;80.49;97583.75;5033915;28;20872;-51
2023/11/03 11:29:02;;;;;;;0.30;0.20;;;;;;;13.02;80.21;97580.75;5033956;28;20483;-51
2023/11/03 11:31:29;;;;;;;0.30;0.20;;;;;;;13.12;80.46;97585.31;5033921;28;20826;-51
2023/11/03 11:34:03;;;;;;;0.30;0.20;;;;;;;13.08;80.22;97583.88;5034013;28;20448;-51
2023/11/03 11:36:33;;;;;;;0.30;0.20;;;;;;;13.08;80.53;97581.22;5033859;28;20458;-51